Time;durP1;ratioP1;P1;durP2;ratioP2;P2;SDS_P1;SDS_P2;PMS_P1;PMS_P2;Temp;Humidity;BMP_temperature;BMP_pressure;BME280_temperature;BME280_humidity;BME280_pressure;Samples;Min_cycle;Max_cycle;Signal;HPM_P1;HPM_P2
2024/01/31 00:04:30;;;;;;;0.80;0.80;;;9.00;99.90;;;;;;10370467;28;20222;-77
2024/01/31 00:09:34;;;;;;;0.50;0.50;;;9.00;99.90;;;;;;10373951;28;20272;-78
2024/01/31 00:14:36;;;;;;;0.50;0.50;;;9.00;99.90;;;;;;10367422;28;20337;-79
2024/01/31 00:19:38;;;;;;;0.60;0.60;;;9.10;99.90;;;;;;10368830;28;20194;-77
2024/01/31 00:24:42;;;;;;;0.50;0.50;;;9.10;99.90;;;;;;10370267;28;20222;-77
2024/01/31 00:29:44;;;;;;;0.47;0.47;;;9.10;99.90;;;;;;10368654;28;20222;-77
2024/01/31 00:34:47;;;;;;;0.50;0.50;;;9.20;99.90;;;;;;10370948;28;20257;-77
2024/01/31 00:39:50;;;;;;;0.60;0.60;;;9.20;99.90;;;;;;10365120;28;20202;-76
2024/01/31 00:44:53;;;;;;;0.50;0.50;;;9.20;99.90;;;;;;10355100;28;20226;-77
2024/01/31 00:49:55;;;;;;;0.50;0.50;;;9.20;99.90;;;;;;10354896;28;20218;-77
2024/01/31 00:54:59;;;;;;;0.43;0.43;;;9.10;99.90;;;;;;10353146;28;20241;-77
2024/01/31 01:00:04;;;;;;;0.50;0.50;;;9.20;99.90;;;;;;10355745;28;20797;-77
2024/01/31 01:05:07;;;;;;;0.40;0.40;;;9.10;99.90;;;;;;10350705;28;20226;-79
2024/01/31 01:10:14;;;;;;;0.50;0.50;;;9.10;99.90;;;;;;10353135;28;20234;-78
2024/01/31 01:15:19;;;;;;;0.47;0.47;;;9.20;99.90;;;;;;10347489;28;20215;-77
2024/01/31 01:20:21;;;;;;;0.50;0.50;;;9.20;99.90;;;;;;10352106;28;20187;-77
2024/01/31 01:25:25;;;;;;;0.50;0.50;;;9.20;99.90;;;;;;10350113;28;20817;-78
2024/01/31 01:30:27;;;;;;;0.50;0.50;;;9.20;99.90;;;;;;10352155;28;20231;-79
2024/01/31 01:35:30;;;;;;;0.40;0.40;;;9.20;99.90;;;;;;10355924;28;20215;-78
2024/01/31 01:40:34;;;;;;;0.50;0.50;;;9.20;99.90;;;;;;10349528;28;20681;-77
2024/01/31 01:45:36;;;;;;;0.50;0.50;;;9.20;99.90;;;;;;10351669;28;20215;-79
2024/01/31 01:50:39;;;;;;;0.50;0.50;;;9.20;99.90;;;;;;10349605;28;20448;-77
2024/01/31 01:55:53;;;;;;;0.53;0.53;;;9.20;99.90;;;;;;10353411;28;20516;-77
2024/01/31 02:01:09;;;;;;;0.50;0.50;;;9.20;99.90;;;;;;10347512;28;20214;-80
2024/01/31 02:06:26;;;;;;;0.50;0.50;;;9.20;99.90;;;;;;10348570;28;20739;-79
2024/01/31 02:11:45;;;;;;;0.50;0.50;;;9.20;99.90;;;;;;10350745;28;20223;-78
2024/01/31 02:16:48;;;;;;;0.60;0.60;;;9.20;99.90;;;;;;10347670;28;20202;-79
2024/01/31 02:21:54;;;;;;;0.60;0.60;;;9.20;99.90;;;;;;10374590;28;20215;-77
2024/01/31 02:26:58;;;;;;;0.50;0.50;;;9.20;99.90;;;;;;10354099;28;20211;-77
2024/01/31 02:32:00;;;;;;;0.60;0.60;;;9.20;99.90;;;;;;10348459;28;20620;-77
2024/01/31 02:37:03;;;;;;;0.50;0.50;;;9.20;99.90;;;;;;10344611;28;20743;-78
2024/01/31 02:42:07;;;;;;;0.50;0.50;;;9.20;99.90;;;;;;10344484;28;20219;-79
2024/01/31 02:47:09;;;;;;;0.50;0.50;;;9.30;99.90;;;;;;10356686;28;20207;-81
2024/01/31 02:52:12;;;;;;;0.60;0.60;;;9.30;99.90;;;;;;10356883;28;20231;-80
2024/01/31 02:57:15;;;;;;;0.50;0.50;;;9.30;99.90;;;;;;10361530;28;20218;-79
2024/01/31 03:02:18;;;;;;;0.50;0.50;;;9.30;99.90;;;;;;10356552;28;20614;-78
2024/01/31 03:07:20;;;;;;;0.50;0.50;;;9.30;99.90;;;;;;10361672;28;20207;-78
2024/01/31 03:12:24;;;;;;;0.60;0.60;;;9.30;99.90;;;;;;10362575;28;20766;-78
2024/01/31 03:17:26;;;;;;;0.60;0.60;;;9.30;99.90;;;;;;10361887;28;20673;-79
2024/01/31 03:22:29;;;;;;;0.73;0.73;;;9.30;99.90;;;;;;10363311;28;20207;-78
2024/01/31 03:27:33;;;;;;;0.60;0.60;;;9.30;99.90;;;;;;10376963;28;20202;-78
2024/01/31 03:32:35;;;;;;;0.60;0.60;;;9.30;99.90;;;;;;10357114;28;20770;-79
2024/01/31 03:37:38;;;;;;;0.50;0.50;;;9.20;99.90;;;;;;10369196;28;20280;-80
2024/01/31 03:42:42;;;;;;;0.50;0.50;;;9.20;99.90;;;;;;10369062;28;20692;-79
2024/01/31 03:47:45;;;;;;;0.50;0.50;;;9.30;99.90;;;;;;10370936;28;20688;-79
2024/01/31 03:52:47;;;;;;;0.50;0.50;;;9.20;99.90;;;;;;10372452;28;20641;-79
2024/01/31 03:57:51;;;;;;;0.63;0.63;;;9.20;99.90;;;;;;10370594;28;20246;-78
2024/01/31 04:02:53;;;;;;;0.50;0.50;;;9.30;99.90;;;;;;10418794;22;20698;-81
2024/01/31 04:07:56;;;;;;;0.87;0.87;;;9.30;99.90;;;;;;10474339;28;20586;-78
2024/01/31 04:12:59;;;;;;;0.90;0.90;;;9.30;99.90;;;;;;10470234;28;20298;-79
2024/01/31 04:18:03;;;;;;;0.90;0.90;;;9.30;99.90;;;;;;10485030;28;20188;-79
2024/01/31 04:23:05;;;;;;;0.90;0.90;;;9.30;99.90;;;;;;10484342;28;20217;-79
2024/01/31 04:28:09;;;;;;;0.70;0.70;;;9.30;99.90;;;;;;10474852;28;20197;-84
2024/01/31 04:33:11;;;;;;;0.90;0.90;;;9.40;99.90;;;;;;10470181;28;20209;-80
2024/01/31 04:38:14;;;;;;;0.60;0.60;;;9.30;99.90;;;;;;10469856;28;20242;-79
2024/01/31 04:43:17;;;;;;;1.00;1.00;;;9.40;99.90;;;;;;10471405;28;20293;-80
2024/01/31 04:48:20;;;;;;;0.93;0.93;;;9.40;99.90;;;;;;10475287;28;20279;-80
2024/01/31 04:53:22;;;;;;;1.23;1.23;;;9.30;99.90;;;;;;10468380;28;20217;-80
2024/01/31 04:58:26;;;;;;;0.90;0.90;;;9.30;99.90;;;;;;10487246;28;20550;-77
2024/01/31 05:03:28;;;;;;;0.80;0.80;;;9.30;99.90;;;;;;10496157;28;20220;-82
2024/01/31 05:08:31;;;;;;;0.80;0.80;;;9.30;99.90;;;;;;10496123;28;20202;-79
2024/01/31 05:13:36;;;;;;;1.00;1.00;;;9.30;99.90;;;;;;10471284;28;20721;-83
2024/01/31 05:18:40;;;;;;;0.73;0.73;;;9.30;99.90;;;;;;10475499;28;20189;-80
2024/01/31 05:23:42;;;;;;;0.90;0.90;;;9.20;99.90;;;;;;10488190;28;20212;-82
2024/01/31 05:28:46;;;;;;;0.60;0.60;;;9.20;99.90;;;;;;10487110;28;20249;-81
2024/01/31 05:33:48;;;;;;;1.00;1.00;;;9.20;99.90;;;;;;10480473;28;20221;-81
2024/01/31 05:38:51;;;;;;;0.20;0.20;;;9.30;99.90;;;;;;10477472;28;20201;-80
2024/01/31 05:43:54;;;;;;;1.07;1.07;;;9.20;99.90;;;;;;10510845;28;20348;-78
2024/01/31 05:48:57;;;;;;;1.00;1.00;;;9.30;99.90;;;;;;10490507;28;20548;-80
2024/01/31 05:54:00;;;;;;;0.90;0.90;;;9.30;99.90;;;;;;10493130;28;20231;-81
2024/01/31 05:59:03;;;;;;;0.70;0.70;;;9.20;99.90;;;;;;10490288;28;20772;-78
2024/01/31 06:04:08;;;;;;;0.30;0.30;;;9.20;99.90;;;;;;10489280;28;20584;-81
2024/01/31 06:09:12;;;;;;;0.47;0.47;;;9.20;99.90;;;;;;10489865;28;20189;-77
2024/01/31 06:14:16;;;;;;;0.60;0.60;;;9.20;99.90;;;;;;10491053;28;20235;-79
2024/01/31 06:19:18;;;;;;;0.50;0.50;;;9.30;99.90;;;;;;10481640;28;20204;-79
2024/01/31 06:24:20;;;;;;;0.30;0.30;;;9.30;99.90;;;;;;10481772;28;20220;-79
2024/01/31 06:29:24;;;;;;;0.50;0.50;;;9.30;99.90;;;;;;10498725;28;20196;-79
2024/01/31 06:34:26;;;;;;;0.40;0.40;;;9.30;99.90;;;;;;10497433;28;20208;-80
2024/01/31 06:39:29;;;;;;;0.30;0.30;;;9.30;99.90;;;;;;10478534;28;20692;-78
2024/01/31 06:44:33;;;;;;;0.30;0.30;;;9.30;99.90;;;;;;10498256;28;20270;-78
2024/01/31 06:49:35;;;;;;;0.30;0.30;;;9.40;99.90;;;;;;10498557;28;20196;-81
2024/01/31 06:54:37;;;;;;;0.63;0.63;;;9.40;99.90;;;;;;10499087;28;20224;-81
2024/01/31 06:59:41;;;;;;;0.37;0.37;;;9.40;99.90;;;;;;10509416;28;20193;-80
2024/01/31 07:04:43;;;;;;;0.53;0.53;;;9.40;99.90;;;;;;10496945;28;20273;-79
2024/01/31 07:09:46;;;;;;;0.50;0.50;;;9.50;99.90;;;;;;10495168;28;20193;-79
2024/01/31 07:14:49;;;;;;;0.60;0.60;;;9.50;99.90;;;;;;10495285;28;20716;-80
2024/01/31 07:19:52;;;;;;;0.50;0.50;;;9.50;99.90;;;;;;10495361;28;20200;-78
2024/01/31 07:24:54;;;;;;;0.50;0.50;;;9.50;99.90;;;;;;10495238;28;20205;-78
2024/01/31 07:29:58;;;;;;;0.50;0.50;;;9.50;99.90;;;;;;10495429;28;20195;-79
2024/01/31 07:35:00;;;;;;;0.40;0.40;;;9.50;99.90;;;;;;10493701;28;20220;-76
2024/01/31 07:40:04;;;;;;;0.40;0.40;;;9.50;99.90;;;;;;10493882;28;20193;-79
2024/01/31 07:45:09;;;;;;;0.20;0.20;;;9.60;99.90;;;;;;10493833;28;20220;-78
2024/01/31 07:50:11;;;;;;;0.50;0.50;;;9.60;99.90;;;;;;10494189;28;20237;-79
2024/01/31 07:55:13;;;;;;;0.50;0.50;;;9.60;99.90;;;;;;10493308;28;20212;-79
2024/01/31 08:00:18;;;;;;;0.30;0.30;;;9.60;99.90;;;;;;10493600;28;20194;-79
2024/01/31 08:05:21;;;;;;;0.30;0.30;;;9.60;99.90;;;;;;10493248;28;20224;-77
2024/01/31 08:10:23;;;;;;;0.50;0.50;;;9.60;99.90;;;;;;10491313;28;20253;-79
2024/01/31 08:15:27;;;;;;;0.27;0.27;;;9.60;99.90;;;;;;10493328;28;20220;-79
2024/01/31 08:20:29;;;;;;;0.43;0.43;;;9.60;99.90;;;;;;10504086;28;20321;-77
2024/01/31 08:25:31;;;;;;;0.40;0.40;;;9.70;99.90;;;;;;10491590;28;20223;-80
2024/01/31 08:30:35;;;;;;;0.30;0.30;;;9.60;99.90;;;;;;10492825;28;20201;-78
2024/01/31 08:35:37;;;;;;;0.30;0.30;;;9.60;99.90;;;;;;10492097;28;20217;-78
2024/01/31 08:40:40;;;;;;;0.20;0.20;;;9.60;99.90;;;;;;10492669;28;20565;-81
2024/01/31 08:45:44;;;;;;;0.30;0.30;;;9.60;99.90;;;;;;10491675;28;20220;-79
2024/01/31 08:50:46;;;;;;;0.37;0.37;;;9.70;99.90;;;;;;10493217;28;20185;-78
2024/01/31 08:55:49;;;;;;;0.20;0.20;;;9.80;99.90;;;;;;10492620;28;20227;-76
2024/01/31 09:00:52;;;;;;;0.40;0.40;;;9.80;99.90;;;;;;10476622;28;20239;-78
2024/01/31 09:05:55;;;;;;;0.20;0.20;;;9.90;99.90;;;;;;10491995;28;20224;-78
2024/01/31 09:10:58;;;;;;;0.40;0.40;;;9.90;99.90;;;;;;10491312;28;20678;-79
2024/01/31 09:16:01;;;;;;;0.40;0.40;;;10.00;99.90;;;;;;10492474;28;20223;-78
2024/01/31 09:21:04;;;;;;;0.30;0.30;;;10.10;99.90;;;;;;10492194;28;20208;-80
2024/01/31 09:26:06;;;;;;;0.37;0.37;;;10.20;99.90;;;;;;10491631;28;20276;-77
2024/01/31 09:31:10;;;;;;;0.30;0.30;;;10.20;99.90;;;;;;10491648;28;20285;-79
2024/01/31 09:36:12;;;;;;;0.30;0.30;;;10.30;99.90;;;;;;10498151;28;20197;-79
2024/01/31 09:41:16;;;;;;;0.40;0.40;;;10.40;99.90;;;;;;10490672;28;20634;-79
2024/01/31 09:46:20;;;;;;;0.10;0.10;;;10.40;99.90;;;;;;10487561;28;20196;-78
2024/01/31 09:51:22;;;;;;;0.40;0.40;;;10.50;99.90;;;;;;10487535;28;20232;-78
2024/01/31 09:56:27;;;;;;;0.20;0.20;;;10.60;99.90;;;;;;10493891;28;20200;-78
2024/01/31 10:06:57;;;;;;;0.50;0.50;;;10.70;99.90;;;;;;10426187;28;20201;-78
2024/01/31 10:12:00;;;;;;;0.50;0.50;;;10.70;99.90;;;;;;10432012;28;20253;-79
2024/01/31 10:17:02;;;;;;;0.37;0.37;;;10.70;99.90;;;;;;10428242;28;20694;-78
2024/01/31 10:22:06;;;;;;;0.30;0.30;;;10.80;99.90;;;;;;10431301;28;20264;-79
2024/01/31 10:27:09;;;;;;;0.40;0.40;;;10.80;99.90;;;;;;10429566;28;20216;-78
2024/01/31 10:32:14;;;;;;;0.30;0.30;;;10.80;99.90;;;;;;10426365;28;20221;-78
2024/01/31 10:37:20;;;;;;;0.20;0.20;;;10.90;99.90;;;;;;10436753;28;20209;-78
2024/01/31 10:42:23;;;;;;;0.30;0.30;;;10.90;99.90;;;;;;10423683;28;20224;-76
2024/01/31 10:47:25;;;;;;;0.10;0.10;;;11.00;99.90;;;;;;10428872;28;20198;-78
2024/01/31 10:52:33;;;;;;;0.30;0.30;;;11.00;99.90;;;;;;10426421;28;20272;-78
2024/01/31 10:57:37;;;;;;;0.40;0.40;;;11.00;99.90;;;;;;10422787;28;20198;-77
2024/01/31 11:02:40;;;;;;;0.20;0.20;;;11.00;99.90;;;;;;10426408;28;20770;-76
2024/01/31 11:07:46;;;;;;;0.30;0.30;;;11.00;99.90;;;;;;10423453;28;20202;-78
2024/01/31 11:13:00;;;;;;;0.33;0.33;;;11.00;99.90;;;;;;10428143;28;20217;-77
2024/01/31 11:18:10;;;;;;;0.50;0.50;;;11.00;99.90;;;;;;10422943;28;20202;-78
2024/01/31 11:23:16;;;;;;;0.30;0.30;;;11.10;99.90;;;;;;10418182;28;20280;-78
2024/01/31 11:28:19;;;;;;;0.20;0.20;;;11.20;99.90;;;;;;10421393;28;20194;-78
2024/01/31 11:33:22;;;;;;;0.40;0.40;;;11.20;99.90;;;;;;10428123;28;20222;-79
2024/01/31 11:38:26;;;;;;;0.10;0.10;;;11.30;99.90;;;;;;10421013;28;20734;-78
2024/01/31 11:43:28;;;;;;;0.20;0.20;;;11.40;99.90;;;;;;10424225;28;20210;-77
2024/01/31 11:48:33;;;;;;;0.40;0.40;;;11.40;99.90;;;;;;10425070;28;20206;-78
2024/01/31 11:53:36;;;;;;;0.27;0.27;;;11.50;99.90;;;;;;10418928;28;20214;-78
2024/01/31 11:58:39;;;;;;;0.20;0.20;;;11.50;99.90;;;;;;10425427;28;20198;-78
2024/01/31 12:03:43;;;;;;;0.40;0.40;;;11.60;99.90;;;;;;10421469;28;20221;-80
2024/01/31 12:08:47;;;;;;;0.37;0.37;;;11.60;99.90;;;;;;10423443;28;20202;-78
2024/01/31 12:13:50;;;;;;;0.30;0.30;;;11.60;99.90;;;;;;10426037;28;20820;-80
2024/01/31 12:19:02;;;;;;;0.10;0.10;;;11.70;99.90;;;;;;10409664;28;20202;-79
2024/01/31 12:24:06;;;;;;;0.30;0.30;;;11.70;99.90;;;;;;10399993;28;20221;-79
2024/01/31 12:29:08;;;;;;;0.20;0.20;;;11.80;99.90;;;;;;10404974;28;20244;-80
2024/01/31 12:34:11;;;;;;;0.20;0.20;;;11.80;99.90;;;;;;10399121;28;20241;-80
2024/01/31 12:39:19;;;;;;;0.30;0.30;;;11.80;99.90;;;;;;10388805;28;20191;-77
2024/01/31 12:44:21;;;;;;;0.40;0.40;;;11.80;99.90;;;;;;10381267;28;20226;-76
2024/01/31 12:49:23;;;;;;;0.40;0.40;;;11.80;99.90;;;;;;10421621;28;20277;-77
2024/01/31 12:54:27;;;;;;;0.40;0.40;;;11.90;99.90;;;;;;10392686;28;20707;-80
2024/01/31 12:59:30;;;;;;;0.20;0.20;;;11.90;99.90;;;;;;10420549;28;20194;-77
2024/01/31 13:04:33;;;;;;;0.40;0.40;;;11.90;99.90;;;;;;10424359;28;20237;-79
2024/01/31 13:09:37;;;;;;;0.30;0.30;;;11.80;99.90;;;;;;10422004;28;20206;-79
2024/01/31 13:14:39;;;;;;;0.30;0.30;;;11.90;99.90;;;;;;10420407;28;20287;-79
2024/01/31 13:19:41;;;;;;;0.40;0.40;;;11.90;99.90;;;;;;10419203;28;20213;-78
2024/01/31 13:24:45;;;;;;;0.10;0.10;;;11.90;99.90;;;;;;10418354;28;20631;-79
2024/01/31 13:29:48;;;;;;;0.10;0.10;;;11.90;99.90;;;;;;10433255;28;20201;-80
2024/01/31 13:34:50;;;;;;;0.10;0.10;;;11.90;99.90;;;;;;10416813;28;20229;-79
2024/01/31 13:39:54;;;;;;;0.20;0.20;;;11.80;99.90;;;;;;10418414;28;20256;-77
2024/01/31 13:44:56;;;;;;;0.23;0.23;;;11.80;99.90;;;;;;10414206;28;20214;-77
2024/01/31 13:49:58;;;;;;;0.20;0.20;;;11.70;99.90;;;;;;10411304;28;20202;-78
2024/01/31 13:55:02;;;;;;;0.40;0.40;;;11.80;99.90;;;;;;10409481;28;20230;-77
2024/01/31 14:00:06;;;;;;;0.17;0.17;;;11.70;99.90;;;;;;10408994;28;20206;-77
2024/01/31 14:05:09;;;;;;;0.40;0.40;;;11.70;99.90;;;;;;10408737;28;20252;-77
2024/01/31 14:10:13;;;;;;;0.50;0.50;;;11.50;99.90;;;;;;10410707;28;20570;-78
2024/01/31 14:15:15;;;;;;;0.50;0.50;;;11.40;99.90;;;;;;10411993;28;20229;-76
2024/01/31 14:20:18;;;;;;;0.40;0.40;;;11.30;99.90;;;;;;10414608;28;20332;-76
2024/01/31 14:25:21;;;;;;;0.50;0.50;;;11.20;99.90;;;;;;10411669;28;20209;-78
2024/01/31 14:30:24;;;;;;;0.50;0.50;;;11.20;99.90;;;;;;10412088;28;20565;-78
2024/01/31 14:35:26;;;;;;;0.50;0.50;;;11.20;99.90;;;;;;10409466;28;20249;-77
2024/01/31 14:40:30;;;;;;;0.70;0.70;;;11.20;99.90;;;;;;10412759;28;20206;-77
2024/01/31 14:45:32;;;;;;;0.50;0.50;;;11.10;99.90;;;;;;10420802;28;20289;-78
2024/01/31 14:50:35;;;;;;;0.60;0.60;;;11.10;99.90;;;;;;10418272;28;20213;-77
2024/01/31 14:55:40;;;;;;;0.50;0.50;;;11.10;99.90;;;;;;10417765;28;20279;-76
2024/01/31 15:00:43;;;;;;;0.10;0.10;;;11.10;99.90;;;;;;10420858;28;20214;-78
2024/01/31 15:05:45;;;;;;;0.40;0.40;;;11.00;99.90;;;;;;10419788;28;20229;-77
2024/01/31 15:10:50;;;;;;;0.50;0.50;;;10.90;99.90;;;;;;10420313;28;20190;-75
2024/01/31 15:15:52;;;;;;;0.60;0.60;;;10.80;99.90;;;;;;10418264;28;20230;-78
2024/01/31 15:20:54;;;;;;;0.50;0.50;;;10.80;99.90;;;;;;10416488;28;20625;-76
2024/01/31 15:25:58;;;;;;;0.60;0.60;;;10.80;99.90;;;;;;10413202;28;20264;-77
2024/01/31 15:31:01;;;;;;;0.50;0.50;;;10.80;99.90;;;;;;10412573;28;20683;-79
2024/01/31 15:36:03;;;;;;;0.50;0.50;;;10.70;99.90;;;;;;10420166;28;20229;-79
2024/01/31 15:41:08;;;;;;;0.60;0.60;;;10.80;99.90;;;;;;10433397;28;20674;-78
2024/01/31 15:46:11;;;;;;;0.60;0.60;;;10.80;99.90;;;;;;10418889;28;20964;-79
2024/01/31 15:51:13;;;;;;;0.50;0.50;;;10.80;99.90;;;;;;10434121;28;20524;-78
2024/01/31 15:56:17;;;;;;;0.60;0.60;;;10.70;99.90;;;;;;10418262;28;20218;-78
2024/01/31 16:01:19;;;;;;;0.60;0.60;;;10.60;99.90;;;;;;10420204;28;20733;-79
2024/01/31 16:06:21;;;;;;;0.20;0.20;;;10.60;99.90;;;;;;10451737;22;20292;-79
2024/01/31 16:11:25;;;;;;;0.60;0.60;;;10.40;99.90;;;;;;10442125;28;20216;-79
2024/01/31 16:16:27;;;;;;;0.60;0.60;;;10.40;99.90;;;;;;10413441;28;20244;-79
2024/01/31 16:21:30;;;;;;;0.27;0.27;;;10.30;99.90;;;;;;10415951;28;20201;-79
2024/01/31 16:26:33;;;;;;;0.30;0.30;;;10.20;99.90;;;;;;10420240;28;20230;-79
2024/01/31 16:31:39;;;;;;;0.80;0.80;;;10.20;99.90;;;;;;10420504;28;20198;-79
2024/01/31 16:36:42;;;;;;;0.60;0.60;;;10.10;99.90;;;;;;10416079;28;20264;-79
2024/01/31 16:41:51;;;;;;;0.70;0.70;;;10.10;99.90;;;;;;10403026;28;20348;-79
2024/01/31 16:46:53;;;;;;;0.50;0.50;;;10.00;99.90;;;;;;10416761;28;20601;-79
2024/01/31 16:51:55;;;;;;;0.70;0.70;;;10.00;99.90;;;;;;10427013;28;20201;-79
2024/01/31 16:57:00;;;;;;;0.50;0.50;;;9.90;99.90;;;;;;10418347;28;20711;-79
2024/01/31 17:02:02;;;;;;;0.27;0.27;;;9.90;99.90;;;;;;10416169;28;20198;-79
2024/01/31 17:07:05;;;;;;;0.60;0.60;;;9.90;99.90;;;;;;10414542;28;20541;-79
2024/01/31 17:12:09;;;;;;;0.70;0.70;;;9.90;99.90;;;;;;10428506;28;20255;-79
2024/01/31 17:17:11;;;;;;;0.50;0.50;;;9.80;99.90;;;;;;10421529;28;20217;-81
2024/01/31 17:22:13;;;;;;;0.60;0.60;;;9.80;99.90;;;;;;10431222;28;20268;-82
2024/01/31 17:27:18;;;;;;;0.80;0.80;;;9.70;99.90;;;;;;10420568;28;20588;-83
2024/01/31 17:32:21;;;;;;;0.73;0.73;;;9.70;99.90;;;;;;10428740;28;20642;-81
2024/01/31 17:37:23;;;;;;;0.80;0.80;;;9.70;99.90;;;;;;10415816;28;20222;-80
2024/01/31 17:42:27;;;;;;;0.67;0.67;;;9.70;99.90;;;;;;10421452;28;20225;-80
2024/01/31 17:47:29;;;;;;;0.50;0.50;;;9.70;99.90;;;;;;10412900;28;20921;-80
2024/01/31 17:52:31;;;;;;;0.73;0.73;;;9.70;99.90;;;;;;10435794;28;20226;-81
2024/01/31 17:57:35;;;;;;;0.70;0.70;;;9.70;99.90;;;;;;10411074;28;20268;-78
2024/01/31 18:02:38;;;;;;;0.60;0.60;;;9.70;99.90;;;;;;10420677;28;20232;-79
2024/01/31 18:07:40;;;;;;;0.80;0.80;;;9.70;99.90;;;;;;10425260;28;20259;-79
2024/01/31 18:12:44;;;;;;;0.60;0.60;;;9.70;99.90;;;;;;10417607;28;20264;-78
2024/01/31 18:17:47;;;;;;;0.97;0.97;;;9.60;99.90;;;;;;10433046;28;20243;-80
2024/01/31 18:22:49;;;;;;;0.60;0.60;;;9.60;99.90;;;;;;10435348;28;20222;-79
2024/01/31 18:27:55;;;;;;;0.80;0.80;;;9.50;99.90;;;;;;10432178;28;20201;-80
2024/01/31 18:32:57;;;;;;;0.70;0.70;;;9.50;99.90;;;;;;10418332;28;20268;-79
2024/01/31 18:38:00;;;;;;;0.80;0.80;;;9.50;99.90;;;;;;10431089;28;20228;-78
2024/01/31 18:43:04;;;;;;;0.70;0.70;;;9.40;99.90;;;;;;10426954;28;20218;-78
2024/01/31 18:48:07;;;;;;;0.50;0.50;;;9.30;99.90;;;;;;10398738;28;20773;-79
2024/01/31 18:53:09;;;;;;;0.70;0.70;;;9.20;99.90;;;;;;10426133;28;20788;-80
2024/01/31 18:58:13;;;;;;;0.90;0.90;;;9.20;99.90;;;;;;10423933;28;20230;-82
2024/01/31 19:03:15;;;;;;;0.70;0.70;;;9.00;99.90;;;;;;10430979;28;20232;-82
2024/01/31 19:08:18;;;;;;;0.80;0.80;;;8.90;99.90;;;;;;10421332;28;20248;-81
2024/01/31 19:13:22;;;;;;;0.60;0.60;;;8.90;99.90;;;;;;10446056;28;20662;-81
2024/01/31 19:18:24;;;;;;;0.67;0.67;;;8.80;99.90;;;;;;10438655;28;20272;-81
2024/01/31 19:23:27;;;;;;;0.70;0.70;;;8.80;99.90;;;;;;10438721;28;20229;-81
2024/01/31 19:28:31;;;;;;;0.60;0.60;;;8.80;99.90;;;;;;10436038;28;20686;-81
2024/01/31 19:33:34;;;;;;;0.70;0.70;;;8.90;99.90;;;;;;10430122;28;20686;-80
2024/01/31 19:38:37;;;;;;;0.70;0.70;;;8.90;99.90;;;;;;10427280;28;21001;-81
2024/01/31 19:43:40;;;;;;;0.63;0.63;;;9.00;99.90;;;;;;10450675;28;20631;-81
2024/01/31 19:48:43;;;;;;;0.60;0.60;;;9.10;99.90;;;;;;10435494;28;20213;-81
2024/01/31 19:53:49;;;;;;;0.50;0.50;;;9.10;99.90;;;;;;10419179;28;20222;-81
2024/01/31 19:58:53;;;;;;;0.70;0.70;;;9.20;99.90;;;;;;10410098;28;20201;-82
2024/01/31 20:03:56;;;;;;;0.50;0.50;;;9.30;99.90;;;;;;10416951;28;20884;-82
2024/01/31 20:08:58;;;;;;;0.50;0.50;;;9.30;99.90;;;;;;10419656;28;20268;-82
2024/01/31 20:14:02;;;;;;;0.60;0.60;;;9.40;99.90;;;;;;10417575;28;20224;-81
2024/01/31 20:19:05;;;;;;;0.80;0.80;;;9.50;99.90;;;;;;10419101;28;20190;-82
2024/01/31 20:24:10;;;;;;;0.40;0.40;;;9.50;99.90;;;;;;10417660;28;20217;-81
2024/01/31 20:29:14;;;;;;;0.60;0.60;;;9.60;99.90;;;;;;10410029;28;20198;-82
2024/01/31 20:34:17;;;;;;;0.53;0.53;;;9.70;99.90;;;;;;10380228;28;20604;-81
2024/01/31 20:39:19;;;;;;;0.60;0.60;;;9.70;99.90;;;;;;10419564;28;20209;-81
2024/01/31 20:44:23;;;;;;;0.70;0.70;;;9.80;99.90;;;;;;10426084;28;20224;-81
2024/01/31 20:49:26;;;;;;;0.60;0.60;;;9.90;99.90;;;;;;10418068;28;20209;-82
2024/01/31 20:54:28;;;;;;;0.60;0.60;;;10.00;99.90;;;;;;10425492;28;20871;-82
2024/01/31 20:59:32;;;;;;;0.50;0.50;;;10.10;99.90;;;;;;10411078;28;20704;-82
2024/01/31 21:04:34;;;;;;;0.50;0.50;;;10.20;99.90;;;;;;10421211;28;20698;-81
2024/01/31 21:09:36;;;;;;;0.87;0.87;;;10.20;99.90;;;;;;10408436;28;20208;-83
2024/01/31 21:14:40;;;;;;;0.60;0.60;;;10.30;99.90;;;;;;10419748;28;20241;-81
2024/01/31 21:19:42;;;;;;;0.60;0.60;;;10.30;99.90;;;;;;10411894;28;20219;-82
2024/01/31 21:24:45;;;;;;;0.60;0.60;;;10.40;99.90;;;;;;10419772;28;20633;-81
2024/01/31 21:29:49;;;;;;;0.70;0.70;;;10.50;99.90;;;;;;10412184;28;20206;-82
2024/01/31 21:34:51;;;;;;;0.40;0.40;;;10.50;99.90;;;;;;10417426;28;20271;-82
2024/01/31 21:39:53;;;;;;;0.40;0.40;;;10.60;99.90;;;;;;10415574;28;20224;-82
2024/01/31 21:44:57;;;;;;;0.50;0.50;;;10.60;99.90;;;;;;10425806;28;20232;-81
2024/01/31 21:50:00;;;;;;;0.43;0.43;;;10.60;99.90;;;;;;10429350;28;20193;-82
2024/01/31 21:55:02;;;;;;;0.50;0.50;;;10.70;99.90;;;;;;10432719;28;20287;-82
2024/01/31 22:00:11;;;;;;;0.40;0.40;;;10.70;99.90;;;;;;10436279;28;20227;-82
2024/01/31 22:05:13;;;;;;;0.50;0.50;;;10.80;99.90;;;;;;10451867;22;20528;-78
2024/01/31 22:10:16;;;;;;;0.60;0.60;;;10.80;99.90;;;;;;10421350;28;20189;-80
2024/01/31 22:15:20;;;;;;;0.50;0.50;;;10.90;99.90;;;;;;10426049;28;20222;-77
2024/01/31 22:20:22;;;;;;;0.50;0.50;;;10.90;99.90;;;;;;10439599;28;20260;-80
2024/01/31 22:25:25;;;;;;;0.50;0.50;;;10.90;99.90;;;;;;10434639;28;20323;-80
2024/01/31 22:30:28;;;;;;;0.50;0.50;;;10.90;99.90;;;;;;10440636;28;20221;-81
2024/01/31 22:35:31;;;;;;;0.50;0.50;;;10.90;99.90;;;;;;10448605;28;20228;-78
2024/01/31 22:40:35;;;;;;;0.50;0.50;;;10.90;99.90;;;;;;10450184;28;20204;-79
2024/01/31 22:45:38;;;;;;;0.40;0.40;;;10.90;99.90;;;;;;10433408;28;20236;-81
2024/01/31 22:50:43;;;;;;;0.40;0.40;;;10.90;99.90;;;;;;10431508;28;20205;-80
2024/01/31 22:55:45;;;;;;;0.60;0.60;;;10.80;99.90;;;;;;10456412;28;20225;-79
2024/01/31 23:00:49;;;;;;;0.40;0.40;;;10.80;99.90;;;;;;10435020;28;20206;-81
2024/01/31 23:05:52;;;;;;;0.40;0.40;;;10.80;99.90;;;;;;10434781;28;20237;-78
2024/01/31 23:10:55;;;;;;;0.40;0.40;;;10.80;99.90;;;;;;10428092;28;20705;-80
2024/01/31 23:15:58;;;;;;;0.60;0.60;;;10.70;99.90;;;;;;10438319;28;20287;-78
2024/01/31 23:21:02;;;;;;;0.40;0.40;;;10.70;99.90;;;;;;10444831;28;20217;-78
2024/01/31 23:26:05;;;;;;;0.50;0.50;;;10.70;99.90;;;;;;10468268;28;20257;-79
2024/01/31 23:31:09;;;;;;;0.40;0.40;;;10.70;99.90;;;;;;10455314;28;20201;-78
2024/01/31 23:36:12;;;;;;;0.40;0.40;;;10.60;99.90;;;;;;10456577;28;20226;-79
2024/01/31 23:41:14;;;;;;;0.40;0.40;;;10.60;99.90;;;;;;10412403;28;20198;-78
2024/01/31 23:46:18;;;;;;;0.40;0.40;;;10.50;99.90;;;;;;10419506;28;20576;-80
2024/01/31 23:51:21;;;;;;;0.50;0.50;;;10.40;99.90;;;;;;10431537;28;20202;-79
2024/01/31 23:56:23;;;;;;;0.30;0.30;;;10.40;99.90;;;;;;10421880;28;20691;-79
